Southern Lily — 9VJK4 — position and weather

sailwx.info

Track history (hours):
 
Tides and Currents Weather Stations Pressure Air Temp Water Temp Dewpoint Dewpoint Depression Visibility Wind Speed Wind Dir Waves Ship Positions

Southern Lily

Last reported at 2017-Jul-22 17:21 UTC. Time now 2017-Jul-23 02:28 UTC.
Position S 36°17' E 174°58'.

Length 146 m; draft 8 m.

Type: Ship. MMSI: 565050000.

Date/timePositionNaut miles runAvg speedWind from/ knotsBaromVisibWave heightAir tempDewpointWater temp
2017-Jul-22 17:21S 36°17' E 174°58'3 7.9
2017-Jul-22 17:00S 36°19' E 174°59'4 7.9
2017-Jul-22 16:30S 36°23' E 174°59'4 8.0
2017-Jul-22 16:00S 36°27' E 174°60'4 7.9
2017-Jul-22 15:30S 36°31' E 174°59'4 8.0
2017-Jul-22 15:00S 36°35' E 174°58'8 8.0
2017-Jul-22 14:00S 36°42' E 174°53'4 8.8
2017-Jul-22 13:30S 36°45' E 174°50'4 8.0
2017-Jul-22 13:00S 36°49' E 174°50'3 5.1
2017-Jul-22 12:28S 36°51' E 174°47'0 0.1
2017-Jul-22 11:58S 36°51' E 174°47'0 0.0
2017-Jul-22 11:31S 36°51' E 174°47'0 0.0
2017-Jul-22 11:01S 36°51' E 174°47'0 0.0
2017-Jul-22 10:31S 36°51' E 174°47'0 0.0
2017-Jul-22 10:00S 36°51' E 174°47'0 0.0
2017-Jul-22 09:30S 36°51' E 174°47'0 0.0
2017-Jul-22 09:00S 36°51' E 174°47'0 0.0
2017-Jul-22 08:31S 36°51' E 174°47'0 0.0
2017-Jul-22 08:00S 36°51' E 174°47'0 0.0
2017-Jul-22 07:30S 36°51' E 174°47'0 0.0
2017-Jul-22 07:01S 36°51' E 174°47'0 0.0
2017-Jul-22 06:30S 36°51' E 174°47'0 0.0
2017-Jul-22 06:00S 36°51' E 174°47'0 0.0
2017-Jul-22 05:31S 36°51' E 174°47'0 0.0
2017-Jul-22 05:01S 36°51' E 174°47'0 0.0
2017-Jul-22 04:30S 36°51' E 174°47'0 0.0
2017-Jul-22 04:01S 36°51' E 174°47'0 0.0
2017-Jul-22 03:31S 36°51' E 174°47'0 0.0
2017-Jul-22 03:00S 36°51' E 174°47'0 0.0
2017-Jul-22 02:31S 36°51' E 174°47'0 0.0
2017-Jul-22 02:00S 36°51' E 174°47'0 0.0
2017-Jul-22 01:30S 36°51' E 174°47'0 0.0
2017-Jul-22 01:01S 36°51' E 174°47'0 0.0
2017-Jul-22 00:31S 36°51' E 174°47'0 0.0
2017-Jul-22 00:00S 36°51' E 174°47'0 0.0
2017-Jul-21 23:31S 36°51' E 174°47'0 0.0
2017-Jul-21 23:01S 36°51' E 174°47'0 0.0
2017-Jul-21 22:31S 36°51' E 174°47'0 0.0
2017-Jul-21 22:01S 36°51' E 174°47'0 0.0
2017-Jul-21 21:30S 36°51' E 174°47'0 0.0
2017-Jul-21 21:00S 36°51' E 174°47'0 0.0
2017-Jul-21 20:31S 36°51' E 174°47'0 0.0
2017-Jul-21 20:00S 36°51' E 174°47'0 0.0
2017-Jul-21 19:30S 36°51' E 174°47'0 0.0
2017-Jul-21 19:01S 36°51' E 174°47'0 0.0
2017-Jul-21 18:31S 36°51' E 174°47'0 0.0
2017-Jul-21 18:00S 36°51' E 174°47'0 0.0
2017-Jul-21 17:31S 36°51' E 174°47'0 0.0
2017-Jul-21 17:01S 36°51' E 174°47'0 0.0
2017-Jul-21 16:31S 36°51' E 174°47'0 0.1
2017-Jul-21 16:01S 36°51' E 174°47'0 0.0
2017-Jul-21 15:31S 36°51' E 174°47'0 0.1
2017-Jul-21 15:01S 36°51' E 174°47'0 0.0
2017-Jul-21 14:31S 36°51' E 174°47'0 0.0
2017-Jul-21 14:01S 36°51' E 174°47'0 0.0
2017-Jul-21 13:31S 36°51' E 174°47'0 0.0
2017-Jul-21 13:01S 36°51' E 174°47'0 0.1
2017-Jul-21 12:30S 36°51' E 174°47'0 0.1
2017-Jul-21 12:00S 36°51' E 174°47'0 0.0
2017-Jul-21 11:31S 36°51' E 174°47'0 0.0
2017-Jul-21 11:01S 36°51' E 174°47'0 0.0
2017-Jul-21 10:31S 36°51' E 174°47'0 0.0
2017-Jul-21 10:00S 36°51' E 174°47'0 0.0
2017-Jul-21 09:31S 36°51' E 174°47'0 0.0
2017-Jul-21 09:01S 36°51' E 174°47'0 0.0
2017-Jul-21 08:31S 36°51' E 174°47'0 0.0
2017-Jul-21 08:00S 36°51' E 174°47'0 0.0
2017-Jul-21 07:30S 36°51' E 174°47'0 0.0
2017-Jul-21 07:00S 36°51' E 174°47'0 0.0
2017-Jul-21 06:31S 36°51' E 174°47'0 0.0
2017-Jul-21 06:00S 36°51' E 174°47'0 0.0
2017-Jul-21 05:31S 36°51' E 174°47'0 0.0
2017-Jul-21 05:00S 36°51' E 174°47'0 0.0
2017-Jul-21 04:31S 36°51' E 174°47'0 0.0
2017-Jul-21 04:01S 36°51' E 174°47'0 0.0
2017-Jul-21 03:31S 36°51' E 174°47'0 0.0
2017-Jul-21 03:00S 36°51' E 174°47'0 0.0
2017-Jul-21 02:31S 36°51' E 174°47'0 0.0
2017-Jul-21 02:01S 36°51' E 174°47'0 0.0
2017-Jul-21 01:31S 36°51' E 174°47'0 0.0
2017-Jul-21 01:01S 36°51' E 174°47'0 0.0
2017-Jul-21 00:31S 36°51' E 174°47'0 0.0
2017-Jul-21 00:01S 36°51' E 174°47'0 0.0
2017-Jul-20 23:31S 36°51' E 174°47'1 1.7
2017-Jul-20 23:01S 36°50' E 174°48'4 7.5
2017-Jul-20 22:30S 36°47' E 174°48'5 9.8
2017-Jul-20 22:00S 36°43' E 174°52'4 8.9
2017-Jul-20 21:31S 36°39' E 174°56'4 8.3
2017-Jul-20 21:01S 36°36' E 174°58'4 7.2
2017-Jul-20 20:30S 36°32' E 174°59'4 8.5
2017-Jul-20 20:01S 36°28' E 174°60'510.0
2017-Jul-20 19:30S 36°23' E 174°60'510.2
2017-Jul-20 19:01S 36°18' E 174°59'5 9.3
2017-Jul-20 18:30S 36°13' E 174°58'  
Track history (hours):
 
Tides and Currents Weather Stations Pressure Air Temp Water Temp Dewpoint Dewpoint Depression Visibility Wind Speed Wind Dir Waves Ship Positions

Southern Lily

Last reported at 2017-Jul-22 17:21 UTC. Time now 2017-Jul-23 02:28 UTC.
Position S 36°17' E 174°58'.

Length 146 m; draft 8 m.

Type: Ship. MMSI: 565050000.

Date/timePositionNaut miles runAvg speedWind from/ knotsBaromVisibWave heightAir tempDewpointWater temp
2017-Jul-22 17:21S 36°17' E 174°58'3 7.9
2017-Jul-22 17:00S 36°19' E 174°59'4 7.9
2017-Jul-22 16:30S 36°23' E 174°59'4 8.0
2017-Jul-22 16:00S 36°27' E 174°60'4 7.9
2017-Jul-22 15:30S 36°31' E 174°59'4 8.0
2017-Jul-22 15:00S 36°35' E 174°58'8 8.0
2017-Jul-22 14:00S 36°42' E 174°53'4 8.8
2017-Jul-22 13:30S 36°45' E 174°50'4 8.0
2017-Jul-22 13:00S 36°49' E 174°50'3 5.1
2017-Jul-22 12:28S 36°51' E 174°47'0 0.1
2017-Jul-22 11:58S 36°51' E 174°47'0 0.0
2017-Jul-22 11:31S 36°51' E 174°47'0 0.0
2017-Jul-22 11:01S 36°51' E 174°47'0 0.0
2017-Jul-22 10:31S 36°51' E 174°47'0 0.0
2017-Jul-22 10:00S 36°51' E 174°47'0 0.0
2017-Jul-22 09:30S 36°51' E 174°47'0 0.0
2017-Jul-22 09:00S 36°51' E 174°47'0 0.0
2017-Jul-22 08:31S 36°51' E 174°47'0 0.0
2017-Jul-22 08:00S 36°51' E 174°47'0 0.0
2017-Jul-22 07:30S 36°51' E 174°47'0 0.0
2017-Jul-22 07:01S 36°51' E 174°47'0 0.0
2017-Jul-22 06:30S 36°51' E 174°47'0 0.0
2017-Jul-22 06:00S 36°51' E 174°47'0 0.0
2017-Jul-22 05:31S 36°51' E 174°47'0 0.0
2017-Jul-22 05:01S 36°51' E 174°47'0 0.0
2017-Jul-22 04:30S 36°51' E 174°47'0 0.0
2017-Jul-22 04:01S 36°51' E 174°47'0 0.0
2017-Jul-22 03:31S 36°51' E 174°47'0 0.0
2017-Jul-22 03:00S 36°51' E 174°47'0 0.0
2017-Jul-22 02:31S 36°51' E 174°47'0 0.0
2017-Jul-22 02:00S 36°51' E 174°47'0 0.0
2017-Jul-22 01:30S 36°51' E 174°47'0 0.0
2017-Jul-22 01:01S 36°51' E 174°47'0 0.0
2017-Jul-22 00:31S 36°51' E 174°47'0 0.0
2017-Jul-22 00:00S 36°51' E 174°47'0 0.0
2017-Jul-21 23:31S 36°51' E 174°47'0 0.0
2017-Jul-21 23:01S 36°51' E 174°47'0 0.0
2017-Jul-21 22:31S 36°51' E 174°47'0 0.0
2017-Jul-21 22:01S 36°51' E 174°47'0 0.0
2017-Jul-21 21:30S 36°51' E 174°47'0 0.0
2017-Jul-21 21:00S 36°51' E 174°47'0 0.0
2017-Jul-21 20:31S 36°51' E 174°47'0 0.0
2017-Jul-21 20:00S 36°51' E 174°47'0 0.0
2017-Jul-21 19:30S 36°51' E 174°47'0 0.0
2017-Jul-21 19:01S 36°51' E 174°47'0 0.0
2017-Jul-21 18:31S 36°51' E 174°47'0 0.0
2017-Jul-21 18:00S 36°51' E 174°47'0 0.0
2017-Jul-21 17:31S 36°51' E 174°47'0 0.0
2017-Jul-21 17:01S 36°51' E 174°47'0 0.0
2017-Jul-21 16:31S 36°51' E 174°47'0 0.1
2017-Jul-21 16:01S 36°51' E 174°47'0 0.0
2017-Jul-21 15:31S 36°51' E 174°47'0 0.1
2017-Jul-21 15:01S 36°51' E 174°47'0 0.0
2017-Jul-21 14:31S 36°51' E 174°47'0 0.0
2017-Jul-21 14:01S 36°51' E 174°47'0 0.0
2017-Jul-21 13:31S 36°51' E 174°47'0 0.0
2017-Jul-21 13:01S 36°51' E 174°47'0 0.1
2017-Jul-21 12:30S 36°51' E 174°47'0 0.1
2017-Jul-21 12:00S 36°51' E 174°47'0 0.0
2017-Jul-21 11:31S 36°51' E 174°47'0 0.0
2017-Jul-21 11:01S 36°51' E 174°47'0 0.0
2017-Jul-21 10:31S 36°51' E 174°47'0 0.0
2017-Jul-21 10:00S 36°51' E 174°47'0 0.0
2017-Jul-21 09:31S 36°51' E 174°47'0 0.0
2017-Jul-21 09:01S 36°51' E 174°47'0 0.0
2017-Jul-21 08:31S 36°51' E 174°47'0 0.0
2017-Jul-21 08:00S 36°51' E 174°47'0 0.0
2017-Jul-21 07:30S 36°51' E 174°47'0 0.0
2017-Jul-21 07:00S 36°51' E 174°47'0 0.0
2017-Jul-21 06:31S 36°51' E 174°47'0 0.0
2017-Jul-21 06:00S 36°51' E 174°47'0 0.0
2017-Jul-21 05:31S 36°51' E 174°47'0 0.0
2017-Jul-21 05:00S 36°51' E 174°47'0 0.0
2017-Jul-21 04:31S 36°51' E 174°47'0 0.0
2017-Jul-21 04:01S 36°51' E 174°47'0 0.0
2017-Jul-21 03:31S 36°51' E 174°47'0 0.0
2017-Jul-21 03:00S 36°51' E 174°47'0 0.0
2017-Jul-21 02:31S 36°51' E 174°47'0 0.0
2017-Jul-21 02:01S 36°51' E 174°47'0 0.0
2017-Jul-21 01:31S 36°51' E 174°47'0 0.0
2017-Jul-21 01:01S 36°51' E 174°47'0 0.0
2017-Jul-21 00:31S 36°51' E 174°47'0 0.0
2017-Jul-21 00:01S 36°51' E 174°47'0 0.0
2017-Jul-20 23:31S 36°51' E 174°47'1 1.7
2017-Jul-20 23:01S 36°50' E 174°48'4 7.5
2017-Jul-20 22:30S 36°47' E 174°48'5 9.8
2017-Jul-20 22:00S 36°43' E 174°52'4 8.9
2017-Jul-20 21:31S 36°39' E 174°56'4 8.3
2017-Jul-20 21:01S 36°36' E 174°58'4 7.2
2017-Jul-20 20:30S 36°32' E 174°59'4 8.5
2017-Jul-20 20:01S 36°28' E 174°60'510.0
2017-Jul-20 19:30S 36°23' E 174°60'510.2
2017-Jul-20 19:01S 36°18' E 174°59'5 9.3
2017-Jul-20 18:30S 36°13' E 174°58'  

Dump ship's entire track history